Time;durP1;ratioP1;P1;durP2;ratioP2;P2;SDS_P1;SDS_P2;PMS_P1;PMS_P2;Temp;Humidity;BMP_temperature;BMP_pressure;BME280_temperature;BME280_humidity;BME280_pressure;Samples;Min_cycle;Max_cycle;Signal;HPM_P1;HPM_P2
2023/01/22 00:02:01;;;;;;;45.13;16.98;;;;;;;-5.05;100.00;103607.09;5114899;28;20023;-78
2023/01/22 00:04:30;;;;;;;43.67;17.38;;;;;;;-5.06;100.00;103610.53;5113569;28;20049;-79
2023/01/22 00:06:55;;;;;;;48.95;18.90;;;;;;;-5.10;100.00;103608.75;5114277;28;20027;-78
2023/01/22 00:09:21;;;;;;;37.60;17.90;;;;;;;-5.12;100.00;103611.28;5113686;28;20034;-78
2023/01/22 00:11:50;;;;;;;46.85;19.42;;;;;;;-5.15;100.00;103609.53;5114049;28;20480;-78
2023/01/22 00:14:16;;;;;;;42.40;17.63;;;;;;;-5.17;100.00;103613.81;5113082;28;20414;-78
2023/01/22 00:16:42;;;;;;;35.95;16.45;;;;;;;-5.19;100.00;103615.50;5118808;28;20038;-78
2023/01/22 00:19:08;;;;;;;37.38;16.75;;;;;;;-5.21;100.00;103616.31;5121288;28;20035;-78
2023/01/22 00:21:33;;;;;;;34.08;16.00;;;;;;;-5.24;100.00;103617.16;5120317;28;20056;-78
2023/01/22 00:23:59;;;;;;;35.88;15.57;;;;;;;-5.23;100.00;103616.28;5113632;28;20027;-78
2023/01/22 00:26:25;;;;;;;27.55;13.98;;;;;;;-5.20;100.00;103615.47;5112970;28;20031;-78
2023/01/22 00:28:50;;;;;;;35.83;15.77;;;;;;;-5.15;100.00;103614.72;5113166;28;20495;-78
2023/01/22 00:31:16;;;;;;;38.85;15.20;;;;;;;-5.08;100.00;103609.66;5113206;28;20036;-77
2023/01/22 00:33:43;;;;;;;32.90;15.52;;;;;;;-4.98;100.00;103609.84;5112314;28;20179;-78
2023/01/22 00:36:20;;;;;;;35.83;14.95;;;;;;;-4.80;100.00;103611.03;5113329;28;20036;-78
2023/01/22 00:38:46;;;;;;;39.35;16.02;;;;;;;-4.56;100.00;103613.19;5113098;28;20027;-77
2023/01/22 00:41:12;;;;;;;37.22;16.52;;;;;;;-4.33;100.00;103612.69;5113340;28;20445;-77
2023/01/22 00:43:39;;;;;;;36.58;16.02;;;;;;;-4.14;100.00;103612.13;5113156;28;20063;-78
2023/01/22 00:46:06;;;;;;;44.13;17.30;;;;;;;-3.95;100.00;103613.28;5113139;28;20039;-78
2023/01/22 00:48:31;;;;;;;34.55;16.88;;;;;;;-3.78;100.00;103604.84;5112459;28;20027;-78
2023/01/22 00:50:57;;;;;;;36.42;16.77;;;;;;;-3.67;100.00;103602.38;5112806;28;20432;-78
2023/01/22 00:53:22;;;;;;;46.85;16.73;;;;;;;-3.57;100.00;103601.66;5113245;28;20071;-78
2023/01/22 00:55:53;;;;;;;39.33;16.88;;;;;;;-3.53;100.00;103597.38;5094433;28;20494;-78
2023/01/22 00:58:18;;;;;;;39.78;16.15;;;;;;;-3.52;100.00;103594.78;5113165;28;20032;-78
2023/01/22 01:00:44;;;;;;;37.50;17.45;;;;;;;-3.57;100.00;103589.53;5112544;28;20032;-78
2023/01/22 01:05:54;;;;;;;33.72;17.42;;;;;;;-3.67;100.00;103579.84;5113457;28;20411;-78
2023/01/22 01:08:20;;;;;;;37.22;16.67;;;;;;;-3.67;100.00;103576.34;5112498;28;20044;-78
2023/01/22 01:10:45;;;;;;;37.08;16.63;;;;;;;-3.67;100.00;103584.16;5112293;28;20040;-78
2023/01/22 01:13:11;;;;;;;38.30;16.45;;;;;;;-3.65;100.00;103590.28;5111581;28;20063;-78
2023/01/22 01:15:36;;;;;;;39.47;17.17;;;;;;;-3.62;100.00;103587.72;5110929;28;20111;-78
2023/01/22 01:18:02;;;;;;;39.40;17.00;;;;;;;-3.56;100.00;103596.47;5112383;28;20043;-78
2023/01/22 01:20:27;;;;;;;42.28;17.52;;;;;;;-3.48;100.00;103599.16;5112251;28;20054;-79
2023/01/22 01:22:53;;;;;;;43.88;17.10;;;;;;;-3.45;100.00;103595.72;5112438;28;20027;-78
2023/01/22 01:25:18;;;;;;;44.20;17.80;;;;;;;-3.41;100.00;103585.38;5112535;28;20399;-79
2023/01/22 01:27:43;;;;;;;39.50;17.98;;;;;;;-3.38;100.00;103580.19;5093969;28;20046;-78
2023/01/22 01:30:09;;;;;;;36.35;15.90;;;;;;;-3.32;100.00;103583.75;5115189;28;20027;-78
2023/01/22 01:32:35;;;;;;;43.97;17.50;;;;;;;-3.28;100.00;103577.72;5116394;28;20051;-78
2023/01/22 01:35:00;;;;;;;47.88;18.10;;;;;;;-3.26;100.00;103578.59;5116600;28;20034;-78
2023/01/22 01:37:25;;;;;;;38.10;15.57;;;;;;;-3.21;100.00;103575.19;5116389;28;20038;-78
2023/01/22 01:39:53;;;;;;;42.80;17.08;;;;;;;-3.19;100.00;103580.41;5116293;28;20031;-78
2023/01/22 01:42:25;;;;;;;34.95;15.93;;;;;;;-3.18;100.00;103582.16;5116384;28;20092;-78
2023/01/22 01:45:23;;;;;;;40.13;16.20;;;;;;;-3.15;100.00;103573.50;5115855;28;20028;-78
2023/01/22 01:47:53;;;;;;;35.80;15.73;;;;;;;-3.13;100.00;103570.06;5115803;27;20047;-78
2023/01/22 01:50:21;;;;;;;34.95;16.35;;;;;;;-3.11;100.00;103567.47;5115305;28;20118;-79
2023/01/22 01:52:47;;;;;;;32.70;15.07;;;;;;;-3.09;100.00;103569.25;5115453;27;20040;-78
2023/01/22 01:55:15;;;;;;;37.00;16.30;;;;;;;-3.07;100.00;103564.06;5116083;27;20049;-79
2023/01/22 01:57:41;;;;;;;37.78;15.55;;;;;;;-3.03;100.00;103574.50;5115648;28;20031;-79
2023/01/22 02:00:11;;;;;;;37.72;15.85;;;;;;;-3.00;100.00;103571.06;5115778;28;20471;-78
2023/01/22 02:02:37;;;;;;;38.72;16.65;;;;;;;-2.99;100.00;103569.34;5115609;28;20059;-79
2023/01/22 02:05:04;;;;;;;38.03;15.30;;;;;;;-3.00;100.00;103560.66;5114502;28;20070;-78
2023/01/22 02:07:30;;;;;;;38.15;15.88;;;;;;;-2.94;100.00;103562.41;5116026;28;20036;-78
2023/01/22 02:09:55;;;;;;;38.15;16.15;;;;;;;-2.90;100.00;103559.84;5115488;28;20532;-78
2023/01/22 02:12:21;;;;;;;34.25;15.60;;;;;;;-2.86;100.00;103551.22;5115867;28;20533;-79
2023/01/22 02:14:48;;;;;;;36.90;15.63;;;;;;;-2.83;100.00;103542.56;5115596;28;20031;-79
2023/01/22 02:17:18;;;;;;;39.35;15.52;;;;;;;-2.81;100.00;103538.22;5116437;28;20097;-78
2023/01/22 02:19:44;;;;;;;37.88;14.52;;;;;;;-2.80;100.00;103536.50;5116007;28;20027;-78
2023/01/22 02:22:21;;;;;;;37.70;16.20;;;;;;;-2.79;100.00;103531.31;5115721;28;20035;-78
2023/01/22 02:24:47;;;;;;;37.70;15.40;;;;;;;-2.80;100.00;103539.13;5113303;28;20384;-75
2023/01/22 02:27:13;;;;;;;35.15;14.35;;;;;;;-2.85;100.00;103545.16;5112367;28;20584;-76
2023/01/22 02:29:38;;;;;;;35.53;15.40;;;;;;;-2.91;100.00;103537.28;5112288;28;20059;-78
2023/01/22 02:32:04;;;;;;;35.15;15.45;;;;;;;-2.96;100.00;103533.75;5112545;28;20379;-77
2023/01/22 02:34:29;;;;;;;35.42;14.55;;;;;;;-2.96;100.00;103536.34;5111194;28;20440;-75
2023/01/22 02:36:55;;;;;;;32.72;13.95;;;;;;;-2.96;100.00;103525.06;5112454;28;20069;-78
2023/01/22 02:39:20;;;;;;;34.70;14.77;;;;;;;-3.00;100.00;103526.78;5112444;28;20081;-76
2023/01/22 02:41:45;;;;;;;35.28;14.23;;;;;;;-3.04;100.00;103538.88;5112487;28;20168;-76
2023/01/22 02:44:11;;;;;;;27.67;13.10;;;;;;;-3.07;100.00;103532.78;5111225;28;20087;-78
2023/01/22 02:46:36;;;;;;;30.13;13.68;;;;;;;-3.08;100.00;103531.91;5112496;28;20035;-77
2023/01/22 02:49:02;;;;;;;30.33;13.05;;;;;;;-3.09;100.00;103530.16;5112735;28;20024;-76
2023/01/22 02:51:28;;;;;;;29.92;13.77;;;;;;;-3.11;100.00;103529.25;5110841;28;20127;-76
2023/01/22 02:53:53;;;;;;;31.55;13.85;;;;;;;-3.12;100.00;103531.84;5112433;28;20062;-77
2023/01/22 02:56:19;;;;;;;35.55;15.60;;;;;;;-3.15;100.00;103527.50;5112227;28;20042;-76
2023/01/22 02:58:45;;;;;;;34.80;14.48;;;;;;;-3.17;100.00;103531.81;5110622;28;20509;-77
2023/01/22 03:01:19;;;;;;;28.48;13.23;;;;;;;-3.18;100.00;103527.44;5110291;28;20217;-78
2023/01/22 03:03:57;;;;;;;27.10;12.57;;;;;;;-3.17;100.00;103534.41;5112427;27;20080;-76
2023/01/22 03:06:24;;;;;;;26.40;13.35;;;;;;;-3.14;100.00;103531.84;5110211;28;20023;-75
2023/01/22 03:08:59;;;;;;;26.80;14.18;;;;;;;-3.10;100.00;103527.56;5112237;28;20040;-77
2023/01/22 03:11:27;;;;;;;24.63;12.75;;;;;;;-3.11;100.00;103536.22;5110978;28;20038;-76
2023/01/22 03:22:07;;;;;;;34.78;14.63;;;;;;;-3.10;100.00;103530.16;5111983;28;20146;-77
2023/01/22 03:24:33;;;;;;;25.80;13.10;;;;;;;-3.13;100.00;103535.34;5111607;28;20030;-77
2023/01/22 03:26:58;;;;;;;32.95;13.77;;;;;;;-3.13;100.00;103523.19;5110022;28;20092;-76
2023/01/22 03:29:24;;;;;;;29.55;13.75;;;;;;;-3.07;100.00;103530.19;5111651;28;20038;-77
2023/01/22 03:31:49;;;;;;;29.30;13.68;;;;;;;-3.04;100.00;103531.06;5111308;28;20137;-77
2023/01/22 03:34:15;;;;;;;32.90;13.85;;;;;;;-2.99;100.00;103530.25;5111368;28;20138;-77
2023/01/22 03:36:41;;;;;;;36.40;13.60;;;;;;;-2.91;100.00;103531.19;5110133;28;20034;-76
2023/01/22 03:39:06;;;;;;;27.42;13.18;;;;;;;-2.83;100.00;103519.97;5111186;28;20023;-76
2023/01/22 03:41:32;;;;;;;32.25;13.40;;;;;;;-2.78;100.00;103521.75;5111516;28;20040;-75
2023/01/22 03:44:00;;;;;;;29.05;12.90;;;;;;;-2.77;100.00;103518.28;5111365;28;20035;-76
2023/01/22 03:46:26;;;;;;;28.35;12.75;;;;;;;-2.75;100.00;103513.94;5111169;28;20028;-76
2023/01/22 03:48:52;;;;;;;27.55;11.98;;;;;;;-2.72;100.00;103513.97;5111498;28;20131;-75
2023/01/22 03:51:18;;;;;;;29.33;13.02;;;;;;;-2.70;100.00;103517.47;5109986;28;20086;-76
2023/01/22 03:53:44;;;;;;;31.08;12.35;;;;;;;-2.70;100.00;103518.34;5110822;28;20054;-76
2023/01/22 03:56:16;;;;;;;35.45;13.18;;;;;;;-2.68;100.00;103519.22;5109595;28;20081;-76
2023/01/22 03:58:42;;;;;;;28.83;12.95;;;;;;;-2.66;100.00;103519.22;5110837;28;20023;-76
2023/01/22 04:01:09;;;;;;;29.17;13.35;;;;;;;-2.62;100.00;103514.94;5109647;28;20047;-76
2023/01/22 04:03:36;;;;;;;25.65;11.98;;;;;;;-2.58;100.00;103509.75;5111034;28;20023;-77
2023/01/22 04:06:02;;;;;;;25.98;12.52;;;;;;;-2.57;100.00;103506.25;5110832;28;20039;-76
2023/01/22 04:08:29;;;;;;;29.05;12.68;;;;;;;-2.55;100.00;103503.69;5110903;28;20024;-75
2023/01/22 04:10:56;;;;;;;22.80;11.55;;;;;;;-2.52;100.00;103501.09;5110369;28;20035;-77
2023/01/22 04:13:22;;;;;;;23.30;12.02;;;;;;;-2.51;100.00;103485.47;5110635;28;20082;-76
2023/01/22 04:15:48;;;;;;;20.75;11.32;;;;;;;-2.49;100.00;103499.38;5110410;28;20032;-76
2023/01/22 04:18:13;;;;;;;22.60;11.50;;;;;;;-2.49;100.00;103485.47;5110152;28;20523;-76
2023/01/22 04:20:39;;;;;;;18.58;10.30;;;;;;;-2.52;100.00;103481.09;5092093;28;20356;-76
2023/01/22 04:23:06;;;;;;;29.30;11.80;;;;;;;-2.56;100.00;103481.09;5110729;28;20042;-75
2023/01/22 04:25:31;;;;;;;21.55;10.85;;;;;;;-2.64;100.00;103478.44;5110416;28;20035;-76
2023/01/22 04:27:57;;;;;;;19.88;10.77;;;;;;;-2.70;100.00;103481.84;5110506;28;20031;-76
2023/01/22 04:30:22;;;;;;;19.35;10.45;;;;;;;-2.76;100.00;103480.91;5108662;28;20032;-76
2023/01/22 04:32:48;;;;;;;20.08;10.93;;;;;;;-2.87;100.00;103484.31;5108449;28;20504;-77
2023/01/22 04:35:13;;;;;;;19.17;10.35;;;;;;;-2.95;100.00;103488.59;5108600;28;20081;-76
2023/01/22 04:37:39;;;;;;;23.20;10.52;;;;;;;-3.04;100.00;103484.19;5110324;28;20044;-76
2023/01/22 04:40:04;;;;;;;19.55;11.10;;;;;;;-3.09;100.00;103485.00;5109726;28;20031;-76
2023/01/22 04:42:31;;;;;;;19.92;9.77;;;;;;;-3.17;100.00;103487.53;5110375;28;20042;-76
2023/01/22 04:44:57;;;;;;;17.98;10.27;;;;;;;-3.27;100.00;103477.88;5108632;28;20099;-77
2023/01/22 04:47:22;;;;;;;17.52;9.98;;;;;;;-3.40;100.00;103482.13;5110391;28;20103;-77
2023/01/22 04:49:48;;;;;;;21.15;10.25;;;;;;;-3.49;100.00;103489.81;5109962;28;20461;-76
2023/01/22 04:52:13;;;;;;;14.73;9.65;;;;;;;-3.59;100.00;103484.50;5109960;28;20086;-77
2023/01/22 04:54:38;;;;;;;22.00;9.88;;;;;;;-3.62;100.00;103487.06;5109608;28;20031;-76
2023/01/22 04:57:04;;;;;;;19.08;9.57;;;;;;;-3.66;100.00;103487.88;5109449;28;20054;-76
2023/01/22 04:59:30;;;;;;;20.65;9.45;;;;;;;-3.74;100.00;103485.19;5108326;28;20028;-76
2023/01/22 05:01:55;;;;;;;22.55;10.20;;;;;;;-3.82;100.00;103481.66;5110023;28;20038;-77
2023/01/22 05:04:20;;;;;;;16.60;9.07;;;;;;;-3.90;100.00;103480.66;5111186;28;20059;-76
2023/01/22 05:06:46;;;;;;;18.42;9.52;;;;;;;-3.99;100.00;103473.63;5112708;28;20371;-76
2023/01/22 05:09:12;;;;;;;17.80;9.60;;;;;;;-4.05;100.00;103480.50;5114202;28;20461;-76
2023/01/22 05:11:37;;;;;;;17.30;9.00;;;;;;;-4.14;100.00;103471.69;5112655;28;20090;-76
2023/01/22 05:14:03;;;;;;;19.95;9.73;;;;;;;-4.19;100.00;103478.56;5112381;28;20111;-76
2023/01/22 05:16:29;;;;;;;17.40;9.00;;;;;;;-4.23;100.00;103475.91;5113814;28;20143;-76
2023/01/22 05:18:54;;;;;;;18.92;9.70;;;;;;;-4.28;100.00;103481.91;5112551;28;20045;-76
2023/01/22 05:21:19;;;;;;;18.30;9.95;;;;;;;-4.33;100.00;103491.41;5112376;28;20386;-76
2023/01/22 05:23:45;;;;;;;14.73;8.70;;;;;;;-4.36;100.00;103495.66;5112229;28;20038;-76
2023/01/22 05:26:10;;;;;;;15.13;8.93;;;;;;;-4.44;100.00;103485.16;5114130;28;20086;-76
2023/01/22 05:28:36;;;;;;;14.68;8.45;;;;;;;-4.47;100.00;103488.56;5113990;28;20046;-76
2023/01/22 05:31:01;;;;;;;14.63;9.05;;;;;;;-4.51;100.00;103486.81;5113320;28;20074;-77
2023/01/22 05:33:30;;;;;;;13.48;8.30;;;;;;;-4.53;100.00;103479.81;5111780;28;20096;-76
2023/01/22 05:36:00;;;;;;;16.50;8.65;;;;;;;-4.51;100.00;103491.09;5113525;28;20027;-77
2023/01/22 05:38:27;;;;;;;15.15;8.70;;;;;;;-4.52;100.00;103492.84;5111917;28;20028;-77
2023/01/22 05:40:52;;;;;;;14.35;8.27;;;;;;;-4.53;100.00;103487.63;5113494;28;20028;-76
2023/01/22 05:43:18;;;;;;;14.90;8.52;;;;;;;-4.56;100.00;103484.97;5111413;28;20031;-77
2023/01/22 05:45:43;;;;;;;13.45;7.57;;;;;;;-4.58;100.00;103486.66;5113461;28;20080;-75
2023/01/22 05:48:08;;;;;;;11.50;6.80;;;;;;;-4.61;100.00;103492.72;5111334;28;20051;-76
2023/01/22 05:50:35;;;;;;;12.60;7.82;;;;;;;-4.63;100.00;103486.59;5112988;28;20420;-76
2023/01/22 05:53:00;;;;;;;16.05;7.90;;;;;;;-4.64;100.00;103497.88;5112920;28;20075;-77
2023/01/22 05:55:26;;;;;;;13.68;7.85;;;;;;;-4.69;100.00;103504.69;5112618;28;20498;-76
2023/01/22 05:57:51;;;;;;;14.25;7.93;;;;;;;-4.72;100.00;103500.31;5112795;28;20218;-76
2023/01/22 06:00:17;;;;;;;16.52;8.63;;;;;;;-4.71;100.00;103499.47;5113376;28;20125;-76
2023/01/22 06:02:43;;;;;;;15.63;7.95;;;;;;;-4.69;100.00;103502.97;5113885;28;20454;-76
2023/01/22 06:05:08;;;;;;;14.95;7.57;;;;;;;-4.67;100.00;103496.09;5114735;28;20161;-77
2023/01/22 06:07:34;;;;;;;14.05;7.13;;;;;;;-4.66;100.00;103496.94;5115095;28;20043;-75
2023/01/22 06:09:59;;;;;;;9.90;6.75;;;;;;;-4.61;100.00;103497.91;5112890;28;20045;-77
2023/01/22 06:12:25;;;;;;;17.70;8.60;;;;;;;-4.56;100.00;103505.78;5114492;28;20028;-75
2023/01/22 06:14:51;;;;;;;15.90;8.02;;;;;;;-4.50;100.00;103503.25;5113404;28;20047;-76
2023/01/22 06:17:17;;;;;;;14.48;8.00;;;;;;;-4.43;100.00;103492.13;5112597;28;20115;-77
2023/01/22 06:19:43;;;;;;;13.18;7.53;;;;;;;-4.39;100.00;103504.28;5111645;28;20344;-77
2023/01/22 06:22:08;;;;;;;14.65;7.88;;;;;;;-4.31;100.00;103505.28;5112307;28;20092;-78
2023/01/22 06:24:33;;;;;;;13.73;8.13;;;;;;;-4.22;100.00;103503.66;5112718;28;20050;-77
2023/01/22 06:26:59;;;;;;;17.25;8.43;;;;;;;-4.14;100.00;103509.84;5110567;28;20042;-76
2023/01/22 06:29:24;;;;;;;14.45;8.55;;;;;;;-4.10;100.00;103501.25;5112047;28;20119;-76
2023/01/22 06:31:50;;;;;;;15.32;8.57;;;;;;;-4.04;100.00;103501.31;5111949;28;20074;-77
2023/01/22 06:34:15;;;;;;;15.98;8.23;;;;;;;-4.03;100.00;103494.38;5112122;28;20027;-75
2023/01/22 06:36:41;;;;;;;17.10;9.07;;;;;;;-3.99;100.00;103507.44;5112216;28;20042;-77
2023/01/22 06:39:06;;;;;;;16.02;8.57;;;;;;;-3.98;100.00;103506.59;5112211;28;20339;-77
2023/01/22 06:41:31;;;;;;;14.27;8.57;;;;;;;-3.95;100.00;103503.16;5111981;28;20442;-77
2023/01/22 06:43:57;;;;;;;19.15;9.25;;;;;;;-3.91;100.00;103503.22;5112319;28;20039;-77
2023/01/22 06:46:22;;;;;;;15.77;8.75;;;;;;;-3.83;100.00;103500.72;5111784;28;20069;-76
2023/01/22 06:48:47;;;;;;;17.27;9.07;;;;;;;-3.75;100.00;103496.50;5112125;28;20478;-77
2023/01/22 06:51:13;;;;;;;15.68;9.23;;;;;;;-3.67;100.00;103500.88;5110401;28;20036;-77
2023/01/22 06:53:38;;;;;;;19.42;9.30;;;;;;;-3.61;100.00;103499.25;5111624;28;20047;-77
2023/01/22 06:56:04;;;;;;;19.13;9.90;;;;;;;-3.53;100.00;103506.28;5111371;28;20498;-75
2023/01/22 06:58:30;;;;;;;22.63;10.25;;;;;;;-3.45;100.00;103508.09;5111248;28;20463;-76
2023/01/22 07:01:03;;;;;;;20.33;9.63;;;;;;;-3.35;100.00;103506.44;5111809;28;20048;-77
2023/01/22 07:03:29;;;;;;;17.85;9.35;;;;;;;-3.25;100.00;103505.69;5111602;28;20131;-76
2023/01/22 07:05:59;;;;;;;19.98;10.55;;;;;;;-3.08;100.00;103505.84;5111539;28;20440;-76
2023/01/22 07:08:26;;;;;;;20.42;9.77;;;;;;;-3.01;100.00;103505.03;5111369;27;20027;-76
2023/01/22 07:10:52;;;;;;;20.52;10.30;;;;;;;-2.92;100.00;103508.59;5111749;28;20035;-76
2023/01/22 07:13:18;;;;;;;20.20;9.95;;;;;;;-2.83;100.00;103508.69;5111517;28;20377;-77
2023/01/22 07:15:43;;;;;;;18.33;9.65;;;;;;;-2.76;100.00;103514.81;5111097;28;20107;-77
2023/01/22 07:18:09;;;;;;;23.60;9.45;;;;;;;-2.70;100.00;103520.09;5111364;28;20078;-75
2023/01/22 07:20:35;;;;;;;21.92;9.63;;;;;;;-2.63;100.00;103510.56;5109572;28;20059;-75
2023/01/22 07:23:01;;;;;;;20.63;8.68;;;;;;;-2.55;100.00;103514.97;5111130;28;20043;-79
2023/01/22 07:25:27;;;;;;;18.15;8.52;;;;;;;-2.51;100.00;103514.16;5111287;28;20487;-75
2023/01/22 07:28:02;;;;;;;19.40;8.50;;;;;;;-2.47;100.00;103527.22;5110925;28;20074;-76
2023/01/22 07:30:28;;;;;;;15.98;8.20;;;;;;;-2.45;100.00;103518.50;5110618;28;20432;-76
2023/01/22 07:32:57;;;;;;;18.23;8.40;;;;;;;-2.39;100.00;103522.91;5110512;28;20047;-76
2023/01/22 07:35:22;;;;;;;13.25;7.47;;;;;;;-2.37;100.00;103526.41;5109486;28;20347;-77
2023/01/22 07:37:52;;;;;;;18.42;8.25;;;;;;;-2.32;100.00;103522.09;5111746;28;20047;-77
2023/01/22 07:40:18;;;;;;;15.68;7.43;;;;;;;-2.26;100.00;103522.13;5110887;28;20110;-77
2023/01/22 07:42:43;;;;;;;16.48;8.57;;;;;;;-2.23;100.00;103532.56;5109714;28;20471;-75
2023/01/22 07:45:09;;;;;;;13.45;7.68;;;;;;;-2.22;100.00;103525.63;5111150;28;20032;-76
2023/01/22 07:47:34;;;;;;;19.23;7.75;;;;;;;-2.20;100.00;103535.19;5110798;28;20036;-76
2023/01/22 07:50:00;;;;;;;14.07;7.45;;;;;;;-2.17;100.00;103542.19;5111411;28;20405;-76
2023/01/22 07:52:25;;;;;;;14.60;7.57;;;;;;;-2.16;100.00;103543.94;5110466;28;20070;-76
2023/01/22 07:54:50;;;;;;;14.63;6.65;;;;;;;-2.13;100.00;103547.41;5110971;28;20028;-76
2023/01/22 07:57:17;;;;;;;16.70;7.30;;;;;;;-2.12;100.00;103535.22;5110975;28;20468;-77
2023/01/22 07:59:43;;;;;;;20.00;7.28;;;;;;;-2.08;100.00;103544.84;5110409;28;20028;-77
2023/01/22 08:02:11;;;;;;;11.38;6.68;;;;;;;-2.07;100.00;103545.72;5110838;28;20042;-74
2023/01/22 08:04:37;;;;;;;21.52;6.90;;;;;;;-2.05;100.00;103544.00;5110340;28;20152;-76
2023/01/22 08:07:03;;;;;;;15.23;6.25;;;;;;;-2.03;100.00;103548.38;5110095;28;20032;-76
2023/01/22 08:09:28;;;;;;;11.60;6.18;;;;;;;-2.00;100.00;103544.88;5108530;28;20088;-76
2023/01/22 08:11:53;;;;;;;13.65;6.80;;;;;;;-1.99;100.00;103546.63;5110089;28;20112;-76
2023/01/22 08:14:19;;;;;;;14.20;7.03;;;;;;;-1.95;100.00;103551.88;5110075;28;20051;-76
2023/01/22 08:16:44;;;;;;;10.70;5.97;;;;;;;-1.93;100.00;103551.00;5110266;28;20106;-76
2023/01/22 08:19:10;;;;;;;10.82;6.15;;;;;;;-1.92;100.00;103550.16;5110046;28;20110;-77
2023/01/22 08:21:35;;;;;;;8.15;5.80;;;;;;;-1.87;100.00;103556.25;5109746;28;20242;-75
2023/01/22 08:24:00;;;;;;;11.95;5.95;;;;;;;-1.85;100.00;103549.31;5110123;28;20124;-82
2023/01/22 08:26:26;;;;;;;13.55;5.90;;;;;;;-1.81;100.00;103543.25;5109670;28;20031;-79
2023/01/22 08:28:51;;;;;;;12.48;6.22;;;;;;;-1.79;100.00;103542.38;5108643;28;20035;-79
2023/01/22 08:31:16;;;;;;;11.88;6.15;;;;;;;-1.75;100.00;103545.88;5109748;28;20550;-80
2023/01/22 08:33:42;;;;;;;7.10;5.63;;;;;;;-1.75;100.00;103540.66;5110286;28;20043;-82
2023/01/22 08:36:07;;;;;;;14.90;6.03;;;;;;;-1.71;100.00;103546.78;5110179;28;20023;-81
2023/01/22 08:38:33;;;;;;;7.63;5.50;;;;;;;-1.68;100.00;103552.00;5109679;28;20056;-81
2023/01/22 08:41:01;;;;;;;10.52;5.65;;;;;;;-1.65;100.00;103555.50;5110433;28;20031;-81
2023/01/22 08:43:26;;;;;;;11.57;5.70;;;;;;;-1.63;100.00;103559.00;5110461;28;20180;-81
2023/01/22 08:45:52;;;;;;;9.85;5.85;;;;;;;-1.60;100.00;103553.78;5109668;28;20157;-76
2023/01/22 08:48:17;;;;;;;8.98;5.68;;;;;;;-1.56;100.00;103564.25;5108333;28;20140;-78
2023/01/22 08:50:42;;;;;;;7.65;5.40;;;;;;;-1.53;100.00;103562.50;5108327;28;20341;-78
2023/01/22 08:53:08;;;;;;;10.43;6.30;;;;;;;-1.51;100.00;103559.91;5109872;28;20099;-77
2023/01/22 08:55:34;;;;;;;13.23;6.30;;;;;;;-1.45;100.00;103567.75;5109875;28;20108;-78
2023/01/22 08:57:59;;;;;;;10.30;6.47;;;;;;;-1.42;100.00;103560.81;5108295;28;20043;-76
2023/01/22 09:00:24;;;;;;;11.73;6.50;;;;;;;-1.38;100.00;103564.28;5109289;28;20032;-76
2023/01/22 09:02:50;;;;;;;13.32;6.45;;;;;;;-1.32;100.00;103566.06;5109227;28;20062;-74
2023/01/22 09:05:15;;;;;;;10.35;5.78;;;;;;;-1.29;100.00;103569.53;5107902;28;20105;-77
2023/01/22 09:07:41;;;;;;;8.73;5.47;;;;;;;-1.23;100.00;103565.22;5109578;28;20038;-77
2023/01/22 09:10:09;;;;;;;18.00;6.28;;;;;;;-1.22;100.00;103562.63;5109832;28;20228;-78
2023/01/22 09:12:35;;;;;;;12.73;6.90;;;;;;;-1.19;100.00;103562.63;5109611;28;20059;-77
2023/01/22 09:15:01;;;;;;;9.80;5.90;;;;;;;-1.16;100.00;103567.00;5109643;28;20134;-76
2023/01/22 09:17:27;;;;;;;10.35;5.82;;;;;;;-1.15;100.00;103564.38;5109609;28;20347;-76
2023/01/22 09:19:52;;;;;;;9.63;6.07;;;;;;;-1.11;100.00;103567.84;5109312;28;20099;-75
2023/01/22 09:22:19;;;;;;;11.32;5.82;;;;;;;-1.07;100.00;103577.47;5109488;28;20375;-77
2023/01/22 09:24:44;;;;;;;12.05;6.10;;;;;;;-1.04;100.00;103579.22;5109311;28;20135;-77
2023/01/22 09:27:10;;;;;;;9.15;6.13;;;;;;;-1.03;100.00;103575.72;5109960;28;20042;-75
2023/01/22 09:29:36;;;;;;;9.60;6.18;;;;;;;-1.02;100.00;103580.94;5107860;28;20075;-76
2023/01/22 09:32:01;;;;;;;10.27;6.55;;;;;;;-1.03;100.00;103573.97;5107621;28;20460;-76
2023/01/22 09:34:27;;;;;;;10.13;5.63;;;;;;;-0.98;100.00;103579.22;5108643;28;20439;-77
2023/01/22 09:36:52;;;;;;;11.60;6.03;;;;;;;-0.97;100.00;103583.56;5110852;28;20116;-80
2023/01/22 09:39:17;;;;;;;10.43;6.15;;;;;;;-0.92;100.00;103580.09;5109560;28;20076;-79
2023/01/22 09:41:51;;;;;;;12.77;6.07;;;;;;;-0.89;100.00;103577.47;5111700;28;20075;-77
2023/01/22 09:44:36;;;;;;;12.25;6.65;;;;;;;-0.81;100.00;103582.72;5111819;28;20527;-78
2023/01/22 09:47:10;;;;;;;9.38;5.63;;;;;;;-0.78;100.00;103585.31;5111059;28;20031;-77
2023/01/22 09:49:53;;;;;;;9.18;5.32;;;;;;;-0.78;100.00;103595.78;5110800;28;20031;-78
2023/01/22 09:52:20;;;;;;;10.45;5.50;;;;;;;-0.77;100.00;103596.69;5114272;28;20053;-77
2023/01/22 09:54:47;;;;;;;8.07;5.38;;;;;;;-0.74;100.00;103586.22;5114511;28;20055;-75
2023/01/22 09:57:14;;;;;;;11.70;6.47;;;;;;;-0.69;100.00;103600.16;5114222;28;20028;-78
2023/01/22 09:59:48;;;;;;;10.68;5.30;;;;;;;-0.63;100.00;103599.28;5114022;28;20066;-77
2023/01/22 10:02:24;;;;;;;9.00;5.57;;;;;;;-0.59;100.00;103598.44;5114339;28;20028;-75
2023/01/22 10:04:55;;;;;;;12.35;5.68;;;;;;;-0.56;100.00;103601.91;5113907;28;20031;-77
2023/01/22 10:07:27;;;;;;;9.15;5.68;;;;;;;-0.54;100.00;103600.19;5114165;28;20023;-77
2023/01/22 10:09:56;;;;;;;9.52;5.65;;;;;;;-0.52;100.00;103600.19;5113970;28;20378;-78
2023/01/22 10:12:22;;;;;;;7.82;5.28;;;;;;;-0.50;100.00;103595.81;5113674;28;20077;-76
2023/01/22 10:14:49;;;;;;;9.95;5.72;;;;;;;-0.46;100.00;103596.66;5113847;28;20035;-77
2023/01/22 10:17:21;;;;;;;8.18;5.43;;;;;;;-0.42;100.00;103594.09;5113842;28;20035;-77
2023/01/22 10:19:53;;;;;;;8.95;5.75;;;;;;;-0.41;100.00;103590.56;5113485;28;20019;-77
2023/01/22 10:22:21;;;;;;;10.70;5.75;;;;;;;-0.39;100.00;103598.41;5112157;28;20328;-77
2023/01/22 10:24:47;;;;;;;9.93;5.70;;;;;;;-0.38;100.00;103594.94;5113559;28;20023;-75
2023/01/22 10:27:22;;;;;;;10.25;5.65;;;;;;;-0.36;100.00;103587.94;5114252;28;20099;-76
2023/01/22 10:30:21;;;;;;;11.50;6.93;;;;;;;-0.34;100.00;103591.47;5113363;28;20035;-77
2023/01/22 10:32:58;;;;;;;15.45;6.75;;;;;;;-0.32;100.00;103588.84;5113350;28;20072;-76
2023/01/22 10:35:24;;;;;;;6.97;5.22;;;;;;;-0.29;100.00;103587.06;5112802;28;20035;-77
2023/01/22 10:37:54;;;;;;;8.00;5.28;;;;;;;-0.25;100.00;103586.22;5113529;28;20036;-76
2023/01/22 10:40:42;;;;;;;11.03;5.53;;;;;;;-0.25;100.00;103587.97;5113840;28;20067;-77
2023/01/22 10:43:16;;;;;;;12.13;5.07;;;;;;;-0.23;100.00;103586.22;5112020;28;20027;-76
2023/01/22 10:46:03;;;;;;;7.47;5.50;;;;;;;-0.20;100.00;103588.81;5112996;28;20023;-76
2023/01/22 10:48:29;;;;;;;10.02;5.97;;;;;;;-0.17;100.00;103582.72;5113658;28;20028;-76
2023/01/22 10:51:02;;;;;;;13.65;5.25;;;;;;;-0.14;100.00;103572.25;5113557;28;20134;-77
2023/01/22 10:53:34;;;;;;;11.98;5.90;;;;;;;-0.08;100.00;103578.31;5113355;28;20352;-76
2023/01/22 10:56:02;;;;;;;14.38;7.05;;;;;;;-0.01;100.00;103571.34;5113175;28;20088;-76
2023/01/22 10:58:35;;;;;;;9.38;5.93;;;;;;;0.06;100.00;103564.31;5113664;28;20050;-77
2023/01/22 11:01:04;;;;;;;11.10;5.43;;;;;;;0.21;100.00;103572.16;5110882;28;20167;-77
2023/01/22 11:03:36;;;;;;;11.98;6.00;;;;;;;0.34;100.00;103565.09;5113003;28;20043;-77
2023/01/22 11:06:12;;;;;;;8.02;5.82;;;;;;;0.49;100.00;103561.56;5112598;28;20093;-76
2023/01/22 11:08:44;;;;;;;10.15;6.28;;;;;;;0.64;100.00;103558.88;5112525;28;20106;-77
2023/01/22 11:11:13;;;;;;;10.60;6.20;;;;;;;0.76;100.00;103565.81;5113031;28;20031;-77
2023/01/22 11:13:59;;;;;;;12.60;5.93;;;;;;;0.75;100.00;103557.91;5112680;28;20027;-77
2023/01/22 11:16:27;;;;;;;14.13;5.82;;;;;;;0.83;100.00;103558.75;5113158;28;20099;-78
2023/01/22 11:19:08;;;;;;;7.28;4.95;;;;;;;0.93;100.00;103551.72;5111073;28;20031;-85